createdAt,value
2018-03-21T00:01:53.587Z,77.53
2018-03-21T00:04:59.188Z,77.72
2018-03-21T00:08:04.885Z,77.58
2018-03-21T00:11:10.451Z,77.56
2018-03-21T00:14:15.954Z,77.63
2018-03-21T00:17:21.513Z,77.52
2018-03-21T00:20:27.011Z,77.76
2018-03-21T00:23:36.223Z,77.76
2018-03-21T00:26:42.105Z,77.52
2018-03-21T00:29:47.656Z,77.88
2018-03-21T00:32:53.228Z,77.91
2018-03-21T00:35:58.737Z,77.93
2018-03-21T00:39:04.129Z,77.73
2018-03-21T00:42:09.681Z,77.67
2018-03-21T00:45:15.255Z,77.84
2018-03-21T00:48:20.962Z,77.63
2018-03-21T00:51:26.505Z,77.87
2018-03-21T00:54:32.027Z,77.95
2018-03-21T00:57:37.808Z,78.03
2018-03-21T01:00:43.308Z,77.99
2018-03-21T01:03:48.852Z,78.04
2018-03-21T01:06:54.357Z,78.07
2018-03-21T01:09:59.929Z,78.12
2018-03-21T01:13:05.449Z,78.02
2018-03-21T01:16:31.573Z,78.14
2018-03-21T01:19:55.604Z,78.02
2018-03-21T01:23:10.218Z,78.32
2018-03-21T01:26:20.098Z,78.24
2018-03-21T01:29:28.252Z,78.34
2018-03-21T01:32:45.069Z,78.31
2018-03-21T01:36:01.180Z,78.26
2018-03-21T01:39:17.325Z,78.30
2018-03-21T01:42:31.217Z,78.44
2018-03-21T01:45:48.433Z,78.44
2018-03-21T01:49:00.259Z,78.24
2018-03-21T01:52:16.865Z,78.29
2018-03-21T01:55:51.750Z,78.38
2018-03-21T01:59:06.100Z,78.63
2018-03-21T02:02:16.089Z,78.49
2018-03-21T02:05:25.219Z,78.57
2018-03-21T02:08:33.644Z,78.35
2018-03-21T02:11:41.451Z,78.39
2018-03-21T02:14:48.187Z,78.26
2018-03-21T02:17:54.031Z,78.34
2018-03-21T02:20:59.581Z,78.32
2018-03-21T02:24:05.069Z,78.32
2018-03-21T02:27:10.221Z,78.45
2018-03-21T02:30:15.754Z,78.73
2018-03-21T02:33:21.060Z,78.59
2018-03-21T02:36:26.570Z,78.64
2018-03-21T02:39:32.125Z,78.80
2018-03-21T02:42:37.913Z,78.64
2018-03-21T02:45:43.420Z,78.91
2018-03-21T02:48:48.958Z,78.72
2018-03-21T02:51:54.466Z,78.65
2018-03-21T02:54:59.888Z,78.88
2018-03-21T02:58:05.498Z,78.88
2018-03-21T03:01:11.049Z,78.69
2018-03-21T03:04:16.623Z,79.09
2018-03-21T03:07:22.165Z,79.17
2018-03-21T03:10:27.705Z,79.10
2018-03-21T03:13:35.879Z,78.92
2018-03-21T03:16:41.461Z,79.13
2018-03-21T03:19:46.960Z,78.91
2018-03-21T03:22:52.532Z,78.90
2018-03-21T03:25:58.080Z,79.37
2018-03-21T03:29:03.586Z,79.33
2018-03-21T03:32:09.133Z,79.37
2018-03-21T03:35:14.641Z,79.36
2018-03-21T03:38:20.254Z,79.47
2018-03-21T03:41:25.782Z,79.30
2018-03-21T03:44:31.325Z,79.25
2018-03-21T03:47:36.822Z,79.35
2018-03-21T03:50:42.361Z,79.30
2018-03-21T03:53:47.715Z,79.34
2018-03-21T03:56:53.257Z,79.39
2018-03-21T03:59:58.760Z,79.32
2018-03-21T04:03:04.304Z,79.51
2018-03-21T04:06:09.846Z,79.54
2018-03-21T04:09:15.457Z,79.68
2018-03-21T04:12:21.238Z,79.69
2018-03-21T04:15:26.811Z,79.77
2018-03-21T04:18:32.352Z,79.69
2018-03-21T04:21:37.965Z,79.83
2018-03-21T04:24:43.488Z,79.54
2018-03-21T04:27:49.028Z,79.44
2018-03-21T04:30:54.528Z,79.67
2018-03-21T04:34:00.077Z,79.73
2018-03-21T04:37:05.489Z,79.77
2018-03-21T04:40:11.038Z,79.71
2018-03-21T04:43:16.548Z,79.59
2018-03-21T04:46:21.955Z,79.80
2018-03-21T04:49:27.463Z,79.79
2018-03-21T04:52:33.015Z,79.79
2018-03-21T04:55:38.539Z,79.71
2018-03-21T04:58:43.926Z,79.77
2018-03-21T05:01:49.468Z,79.93
2018-03-21T05:04:54.864Z,79.92
2018-03-21T05:08:00.499Z,79.95
2018-03-21T05:11:06.042Z,79.94
2018-03-21T05:14:11.595Z,80.06
2018-03-21T05:17:17.102Z,80.08
2018-03-21T05:20:22.676Z,79.97
2018-03-21T05:23:28.166Z,79.81
2018-03-21T05:26:33.717Z,80.18
2018-03-21T05:29:39.254Z,79.99
2018-03-21T05:32:44.800Z,79.91
2018-03-21T05:35:50.412Z,80.00
2018-03-21T05:38:56.313Z,80.31
2018-03-21T05:42:01.814Z,80.05
2018-03-21T05:45:07.352Z,80.14
2018-03-21T05:48:12.891Z,79.95
2018-03-21T05:51:18.480Z,80.42
2018-03-21T05:54:23.980Z,80.57
2018-03-21T05:57:29.586Z,80.78
2018-03-21T06:00:35.392Z,80.41
2018-03-21T06:03:41.141Z,80.73
2018-03-21T06:06:53.403Z,80.98
2018-03-21T06:09:58.902Z,80.61
2018-03-21T06:13:04.480Z,80.96
2018-03-21T06:16:09.996Z,80.87
2018-03-21T06:19:15.544Z,80.94
2018-03-21T06:22:21.093Z,81.14
2018-03-21T06:25:26.602Z,81.09
2018-03-21T06:28:32.153Z,81.41
2018-03-21T06:31:37.710Z,81.61
2018-03-21T06:34:43.208Z,81.40
2018-03-21T06:37:48.763Z,81.84
2018-03-21T06:40:54.330Z,81.76
2018-03-21T06:43:59.823Z,81.75
2018-03-21T06:47:05.416Z,81.10
2018-03-21T06:50:11.117Z,80.62
2018-03-21T06:53:16.684Z,80.93
2018-03-21T06:56:22.178Z,80.72
2018-03-21T06:59:27.762Z,80.27
2018-03-21T07:02:33.324Z,81.16
2018-03-21T07:05:39.105Z,80.48
2018-03-21T07:08:44.656Z,80.68
2018-03-21T07:11:50.195Z,80.43
2018-03-21T07:15:06.863Z,80.38
2018-03-21T07:18:12.131Z,80.32
2018-03-21T07:21:17.635Z,80.43
2018-03-21T07:24:23.182Z,80.81
2018-03-21T07:27:28.736Z,80.89
2018-03-21T07:30:36.018Z,80.66
2018-03-21T07:33:41.370Z,80.89
2018-03-21T07:36:46.944Z,80.97
2018-03-21T07:39:52.449Z,80.90
2018-03-21T07:42:58.078Z,80.94
2018-03-21T07:46:03.630Z,81.20
2018-03-21T07:49:09.179Z,80.87
2018-03-21T07:52:14.714Z,80.93
2018-03-21T07:55:20.255Z,80.92
2018-03-21T07:58:25.756Z,80.82
2018-03-21T08:01:31.341Z,80.97
2018-03-21T08:04:36.896Z,81.07
2018-03-21T08:07:42.536Z,80.93
2018-03-21T08:10:48.089Z,80.74
2018-03-21T08:13:53.583Z,80.87
2018-03-21T08:16:59.155Z,80.74
2018-03-21T08:20:04.365Z,80.80
2018-03-21T08:23:09.942Z,80.72
2018-03-21T08:26:15.485Z,80.64
2018-03-21T08:29:21.026Z,80.64
2018-03-21T08:32:26.570Z,80.66
2018-03-21T08:35:32.114Z,80.83
2018-03-21T08:38:37.637Z,80.75
2018-03-21T08:41:43.180Z,80.72
2018-03-21T08:44:48.672Z,80.65
2018-03-21T08:47:54.991Z,80.70
2018-03-21T08:51:00.481Z,80.70
2018-03-21T08:54:06.060Z,80.55
2018-03-21T08:57:11.569Z,80.44
2018-03-21T09:00:17.101Z,80.50
2018-03-21T09:03:22.597Z,80.30
2018-03-21T09:06:28.149Z,80.38
2018-03-21T09:09:33.696Z,80.58
2018-03-21T09:12:39.293Z,80.32
2018-03-21T09:15:44.958Z,80.24
2018-03-21T09:18:50.548Z,79.90
2018-03-21T09:21:56.045Z,80.25
2018-03-21T09:25:01.577Z,80.16
2018-03-21T09:28:07.083Z,79.80
2018-03-21T09:31:12.674Z,79.81
2018-03-21T09:34:19.053Z,80.19
2018-03-21T09:37:24.421Z,79.87
2018-03-21T09:40:33.394Z,79.76
2018-03-21T09:43:38.931Z,79.97
2018-03-21T09:46:44.505Z,79.75
2018-03-21T09:49:50.009Z,80.18
2018-03-21T09:52:55.581Z,80.05
2018-03-21T09:56:07.790Z,80.24
2018-03-21T09:59:15.442Z,80.12
2018-03-21T10:02:20.990Z,80.04
2018-03-21T10:05:26.567Z,79.40
2018-03-21T10:08:32.078Z,79.90
2018-03-21T10:11:37.626Z,79.76
2018-03-21T10:14:43.118Z,80.13
2018-03-21T10:17:48.675Z,79.50
2018-03-21T10:20:54.215Z,79.80
2018-03-21T10:23:59.958Z,79.86
2018-03-21T10:27:05.491Z,80.03
2018-03-21T10:30:11.028Z,79.90
2018-03-21T10:33:16.610Z,79.78
2018-03-21T10:36:22.145Z,79.68
2018-03-21T10:39:27.655Z,79.79
2018-03-21T10:42:33.197Z,79.81
2018-03-21T10:45:38.760Z,79.96
2018-03-21T10:48:44.300Z,80.14
2018-03-21T10:51:49.801Z,79.85
2018-03-21T10:54:55.328Z,79.64
2018-03-21T10:58:08.507Z,79.56
2018-03-21T11:01:19.473Z,79.44
2018-03-21T11:04:25.034Z,79.62
2018-03-21T11:07:30.581Z,79.32
2018-03-21T11:10:36.377Z,79.09
2018-03-21T11:13:41.868Z,79.26
2018-03-21T11:16:47.488Z,79.01
2018-03-21T11:19:53.030Z,79.03
2018-03-21T11:22:58.576Z,79.23
2018-03-21T11:26:04.081Z,79.26
2018-03-21T11:29:09.634Z,79.24
2018-03-21T11:32:15.183Z,79.14
2018-03-21T11:35:20.734Z,79.42
2018-03-21T11:38:26.234Z,79.23
2018-03-21T11:41:31.807Z,79.37
2018-03-21T11:44:37.324Z,79.26
2018-03-21T11:47:42.861Z,79.42
2018-03-21T11:50:48.365Z,79.53
2018-03-21T11:53:53.916Z,79.23
2018-03-21T11:56:59.456Z,79.34
2018-03-21T12:00:04.692Z,79.33
2018-03-21T12:03:09.981Z,79.33
2018-03-21T12:06:15.473Z,79.43
2018-03-21T12:09:21.010Z,79.50
2018-03-21T12:12:26.561Z,79.49
2018-03-21T12:15:32.055Z,79.36
2018-03-21T12:18:37.625Z,79.19
2018-03-21T12:21:43.145Z,79.33
2018-03-21T12:24:48.795Z,79.43
2018-03-21T12:27:54.290Z,79.50
2018-03-21T12:30:59.687Z,79.39
2018-03-21T12:34:04.909Z,79.44
2018-03-21T12:37:10.497Z,79.39
2018-03-21T12:40:16.176Z,79.70
2018-03-21T12:43:21.744Z,79.53
2018-03-21T12:46:27.317Z,79.43
2018-03-21T12:49:32.572Z,79.18
2018-03-21T12:52:38.076Z,79.86
2018-03-21T12:55:43.664Z,79.52
2018-03-21T12:58:49.433Z,79.79
2018-03-21T13:01:54.965Z,79.91
2018-03-21T13:05:00.503Z,80.07
2018-03-21T13:08:06.035Z,79.63
2018-03-21T13:11:11.585Z,79.90
2018-03-21T13:14:17.125Z,80.26
2018-03-21T13:17:22.673Z,80.16
2018-03-21T13:20:28.217Z,80.00
2018-03-21T13:23:37.626Z,79.91
2018-03-21T13:26:43.725Z,79.67
2018-03-21T13:29:49.275Z,79.80
2018-03-21T13:32:54.784Z,79.60
2018-03-21T13:36:00.314Z,79.47
2018-03-21T13:39:05.057Z,79.61
2018-03-21T13:42:10.615Z,79.47
2018-03-21T13:45:16.338Z,79.68
2018-03-21T13:48:21.798Z,79.96
2018-03-21T13:51:27.309Z,79.73
2018-03-21T13:54:32.852Z,79.81
2018-03-21T13:57:38.424Z,79.76
2018-03-21T14:00:47.021Z,79.60
2018-03-21T14:03:52.556Z,79.58
2018-03-21T14:06:58.101Z,79.46
2018-03-21T14:10:03.714Z,79.72
2018-03-21T14:13:09.265Z,79.45
2018-03-21T14:16:14.804Z,79.74
2018-03-21T14:19:20.362Z,79.52
2018-03-21T14:22:25.874Z,79.51
2018-03-21T14:25:31.744Z,79.62
2018-03-21T14:28:37.251Z,79.76
2018-03-21T14:31:42.803Z,79.36
2018-03-21T14:34:48.314Z,79.49
2018-03-21T14:37:53.854Z,79.41
2018-03-21T14:40:59.256Z,79.65
2018-03-21T14:44:04.818Z,79.80
2018-03-21T14:47:10.365Z,79.54
2018-03-21T14:50:24.335Z,79.50
2018-03-21T14:53:29.831Z,79.55
2018-03-21T14:56:35.616Z,79.63
2018-03-21T14:59:41.229Z,79.55
2018-03-21T15:02:46.778Z,79.57
2018-03-21T15:05:52.318Z,79.52
2018-03-21T15:08:57.871Z,79.83
2018-03-21T15:12:03.414Z,79.52
2018-03-21T15:15:08.949Z,79.61
2018-03-21T15:18:14.468Z,79.75
2018-03-21T15:21:20.029Z,79.47
2018-03-21T15:24:25.549Z,79.54
2018-03-21T15:27:31.197Z,79.61
2018-03-21T15:30:36.727Z,79.51
2018-03-21T15:33:42.294Z,79.52
2018-03-21T15:36:47.798Z,79.62
2018-03-21T15:39:53.428Z,79.57
2018-03-21T15:42:58.966Z,79.62
2018-03-21T15:46:04.520Z,79.40
2018-03-21T15:49:10.055Z,79.45
2018-03-21T15:52:15.650Z,79.41
2018-03-21T15:55:21.133Z,79.54
2018-03-21T15:58:26.709Z,79.81
2018-03-21T16:01:32.474Z,79.74
2018-03-21T16:04:38.022Z,79.67
2018-03-21T16:07:43.620Z,79.68
2018-03-21T16:10:50.008Z,79.93
2018-03-21T16:14:02.183Z,79.84
2018-03-21T16:17:07.699Z,79.84
2018-03-21T16:20:13.280Z,79.74
2018-03-21T16:23:18.826Z,79.79
2018-03-21T16:26:24.366Z,79.83
2018-03-21T16:29:29.960Z,79.90
2018-03-21T16:32:35.511Z,80.26
2018-03-21T16:35:41.050Z,80.40
2018-03-21T16:38:46.611Z,80.18
2018-03-21T16:41:52.116Z,80.06
2018-03-21T16:44:57.650Z,79.95
2018-03-21T16:48:03.165Z,80.08
2018-03-21T16:51:08.773Z,80.15
2018-03-21T16:54:14.285Z,79.99
2018-03-21T16:57:19.845Z,79.96
2018-03-21T17:00:25.349Z,79.89
2018-03-21T17:03:31.662Z,80.09
2018-03-21T17:06:37.206Z,79.72
2018-03-21T17:09:42.760Z,79.74
2018-03-21T17:12:48.264Z,79.82
2018-03-21T17:15:53.817Z,79.99
2018-03-21T17:18:59.403Z,79.95
2018-03-21T17:22:04.985Z,79.87
2018-03-21T17:25:10.526Z,80.07
2018-03-21T17:28:15.826Z,79.91
2018-03-21T17:31:21.409Z,80.05
2018-03-21T17:34:26.952Z,79.99
2018-03-21T17:37:32.503Z,79.91
2018-03-21T17:40:38.023Z,79.92
2018-03-21T17:43:43.586Z,79.71
2018-03-21T17:46:49.083Z,79.66
2018-03-21T17:49:54.625Z,79.64
2018-03-21T17:53:00.120Z,79.74
2018-03-21T17:56:10.506Z,79.87
2018-03-21T17:59:16.049Z,79.86
2018-03-21T18:02:26.771Z,79.89
2018-03-21T18:05:36.156Z,79.75
2018-03-21T18:09:06.380Z,79.93
2018-03-21T18:12:26.903Z,79.91
2018-03-21T18:15:49.035Z,79.90
2018-03-21T18:19:22.380Z,79.88
2018-03-21T18:22:35.582Z,80.15
2018-03-21T18:25:54.488Z,79.97
2018-03-21T18:29:13.969Z,80.18
2018-03-21T18:32:31.039Z,80.10
2018-03-21T18:35:56.304Z,80.12
2018-03-21T18:39:12.205Z,80.26
2018-03-21T18:42:32.931Z,80.30
2018-03-21T18:45:52.029Z,80.23
2018-03-21T18:49:10.558Z,80.26
2018-03-21T18:52:33.365Z,80.48
2018-03-21T18:56:02.277Z,80.40
2018-03-21T18:59:42.043Z,80.35
2018-03-21T19:06:13.885Z,80.25
2018-03-21T19:09:32.308Z,80.44
2018-03-21T19:13:03.765Z,80.34
2018-03-21T19:20:01.329Z,80.40
2018-03-21T19:23:21.609Z,80.52
2018-03-21T19:26:41.385Z,80.50
2018-03-21T19:29:56.233Z,80.53
2018-03-21T19:33:14.830Z,80.49
2018-03-21T19:36:53.663Z,80.69
2018-03-21T19:40:31.589Z,80.65
2018-03-21T19:43:45.023Z,80.66
2018-03-21T19:47:00.741Z,80.58
2018-03-21T19:54:03.005Z,80.49
2018-03-21T19:57:24.211Z,80.46
2018-03-21T20:00:37.517Z,80.69
2018-03-21T20:03:48.648Z,80.53
2018-03-21T20:07:08.479Z,81.16
2018-03-21T20:10:21.927Z,81.06
2018-03-21T20:13:30.415Z,81.05
2018-03-21T20:16:41.595Z,81.16
2018-03-21T20:19:49.590Z,81.19
2018-03-21T20:22:58.683Z,81.06
2018-03-21T20:26:11.266Z,81.16
2018-03-21T20:29:21.623Z,81.09
2018-03-21T20:32:40.862Z,81.60
2018-03-21T20:35:56.080Z,81.40
2018-03-21T20:39:08.809Z,81.23
2018-03-21T20:42:34.167Z,81.26
2018-03-21T20:45:52.188Z,81.39
2018-03-21T20:49:03.528Z,81.39
2018-03-21T20:52:11.549Z,81.56
2018-03-21T20:55:19.277Z,81.49
2018-03-21T20:58:27.088Z,81.81
2018-03-21T21:01:39.082Z,81.74
2018-03-21T21:04:51.377Z,81.53
2018-03-21T21:08:02.174Z,81.77
2018-03-21T21:11:12.552Z,81.73
2018-03-21T21:14:23.536Z,81.67
2018-03-21T21:17:31.398Z,81.76
2018-03-21T21:20:36.955Z,81.58
2018-03-21T21:23:43.415Z,81.81
2018-03-21T21:26:51.058Z,81.96
2018-03-21T21:29:58.070Z,81.75
2018-03-21T21:33:10.516Z,82.02
2018-03-21T21:36:24.540Z,82.01
2018-03-21T21:39:34.425Z,81.95
2018-03-21T21:42:40.446Z,82.20
2018-03-21T21:45:46.210Z,82.36
2018-03-21T21:48:51.797Z,82.13
2018-03-21T21:51:57.351Z,82.10
2018-03-21T21:55:02.907Z,82.17
2018-03-21T21:58:09.109Z,82.52
2018-03-21T22:01:14.679Z,82.36
2018-03-21T22:04:20.206Z,82.28
2018-03-21T22:07:25.774Z,82.11
2018-03-21T22:10:34.147Z,82.42
2018-03-21T22:13:39.707Z,82.03
2018-03-21T22:16:45.490Z,82.19
2018-03-21T22:19:51.022Z,81.98
2018-03-21T22:22:56.520Z,82.06
2018-03-21T22:26:02.086Z,82.55
2018-03-21T22:29:07.605Z,82.39
2018-03-21T22:32:13.165Z,82.14
2018-03-21T22:35:18.673Z,82.37
2018-03-21T22:38:24.246Z,82.31
2018-03-21T22:41:29.750Z,83.20
2018-03-21T22:44:35.364Z,82.50
2018-03-21T22:47:41.671Z,82.30
2018-03-21T22:50:47.230Z,82.30
2018-03-21T22:53:52.744Z,82.58
2018-03-21T22:56:58.302Z,82.47
2018-03-21T23:00:04.307Z,82.79
2018-03-21T23:03:13.180Z,82.48
2018-03-21T23:06:37.339Z,82.48
2018-03-21T23:10:09.907Z,82.63
2018-03-21T23:13:24.839Z,82.48
2018-03-21T23:16:30.130Z,82.66
2018-03-21T23:19:35.643Z,82.55
2018-03-21T23:22:40.950Z,82.67
2018-03-21T23:25:46.456Z,82.58
2018-03-21T23:28:52.129Z,82.64
2018-03-21T23:31:57.676Z,82.65
2018-03-21T23:35:03.233Z,82.50
2018-03-21T23:38:08.800Z,82.63
2018-03-21T23:41:14.329Z,82.74
2018-03-21T23:44:19.880Z,82.71
2018-03-21T23:47:25.402Z,82.55
2018-03-21T23:50:33.591Z,82.67
2018-03-21T23:53:39.144Z,82.72
2018-03-21T23:56:44.711Z,82.92
2018-03-21T23:59:50.244Z,82.82
